Time;durP1;ratioP1;P1;durP2;ratioP2;P2;SDS_P1;SDS_P2;PMS_P1;PMS_P2;Temp;Humidity;BMP_temperature;BMP_pressure;BME280_temperature;BME280_humidity;BME280_pressure;Samples;Min_cycle;Max_cycle;Signal;HPM_P1;HPM_P2
2023/07/04 00:00:41;;;;;;;9.40;1.88;;;12.30;99.90;;;;;;5073764;28;20020;-86
2023/07/04 00:03:07;;;;;;;5.90;2.00;;;12.30;99.90;;;;;;5065736;28;20043;-85
2023/07/04 00:05:33;;;;;;;7.40;1.60;;;12.30;99.90;;;;;;5061343;28;20039;-87
2023/07/04 00:07:59;;;;;;;11.65;2.20;;;12.30;99.90;;;;;;5063383;28;20048;-86
2023/07/04 00:10:25;;;;;;;11.35;2.10;;;12.30;99.90;;;;;;5066079;28;20067;-82
2023/07/04 00:12:51;;;;;;;7.20;1.98;;;12.30;99.90;;;;;;5068686;28;20103;-87
2023/07/04 00:15:16;;;;;;;8.20;2.38;;;12.40;99.90;;;;;;5070183;28;20063;-86
2023/07/04 00:17:45;;;;;;;8.43;2.15;;;12.30;99.90;;;;;;5070042;28;20577;-86
2023/07/04 00:20:11;;;;;;;7.53;1.88;;;12.30;99.90;;;;;;5066524;28;20522;-86
2023/07/04 00:22:38;;;;;;;5.55;1.90;;;12.30;99.90;;;;;;5067455;28;20048;-88
2023/07/04 00:25:05;;;;;;;12.30;2.28;;;12.30;99.90;;;;;;5069951;28;20473;-87
2023/07/04 00:27:32;;;;;;;5.50;1.50;;;12.20;99.90;;;;;;5064718;28;20052;-86
2023/07/04 00:29:58;;;;;;;5.85;1.95;;;12.20;99.90;;;;;;5065348;28;20048;-87
2023/07/04 00:32:23;;;;;;;8.50;1.50;;;12.10;99.90;;;;;;5065154;28;20021;-88
2023/07/04 00:34:50;;;;;;;9.80;1.88;;;12.00;99.90;;;;;;5069250;28;20055;-85
2023/07/04 00:37:21;;;;;;;5.35;1.73;;;12.00;99.90;;;;;;5068802;28;20046;-88
2023/07/04 00:39:47;;;;;;;;;;;12.00;99.90;;;;;;5070677;28;20032;-87
2023/07/04 00:42:13;;;;;;;5.78;1.52;;;11.90;99.90;;;;;;5067342;28;20419;-85
2023/07/04 00:44:44;;;;;;;5.13;2.08;;;11.80;99.90;;;;;;5066237;28;20047;-87
2023/07/04 00:47:21;;;;;;;8.98;1.70;;;11.80;99.90;;;;;;5068777;28;20449;-84
2023/07/04 00:49:50;;;;;;;4.80;1.60;;;11.70;99.90;;;;;;5066722;28;20029;-88
2023/07/04 00:52:28;;;;;;;4.90;1.70;;;11.60;99.90;;;;;;5061712;28;20052;-86
2023/07/04 00:54:57;;;;;;;4.22;1.20;;;11.60;99.90;;;;;;5056576;28;20055;-87
2023/07/04 00:57:31;;;;;;;4.43;1.40;;;11.50;99.90;;;;;;5065755;28;20029;-87
2023/07/04 01:00:00;;;;;;;5.32;1.50;;;11.40;99.90;;;;;;5067021;28;20127;-86
2023/07/04 01:02:31;;;;;;;3.20;1.50;;;11.40;99.90;;;;;;5062152;28;20028;-85
2023/07/04 01:04:58;;;;;;;;;;;11.40;99.90;;;;;;5065464;28;20039;-84
2023/07/04 01:07:42;;;;;;;4.88;1.45;;;11.30;99.90;;;;;;5066392;28;19930;-88
2023/07/04 01:10:27;;;;;;;9.85;1.42;;;11.30;99.90;;;;;;5063606;28;20119;-87
2023/07/04 01:12:53;;;;;;;3.30;1.20;;;11.30;99.90;;;;;;5068773;28;20028;-86
2023/07/04 01:15:19;;;;;;;7.20;1.98;;;11.20;99.90;;;;;;5068263;28;20381;-87
2023/07/04 01:17:44;;;;;;;8.55;1.65;;;11.20;99.90;;;;;;5069082;28;20027;-88
2023/07/04 01:20:12;;;;;;;5.35;1.55;;;11.20;99.90;;;;;;5065773;28;20040;-88
2023/07/04 01:23:08;;;;;;;4.32;1.38;;;11.20;99.90;;;;;;5069078;28;20033;-85
2023/07/04 01:25:37;;;;;;;6.40;1.42;;;11.20;99.90;;;;;;5062838;28;20021;-88
2023/07/04 01:28:04;;;;;;;5.00;1.67;;;11.20;99.90;;;;;;5050362;28;20033;-89
2023/07/04 01:30:33;;;;;;;6.15;1.80;;;11.20;99.90;;;;;;5065634;28;20115;-89
2023/07/04 01:33:00;;;;;;;5.45;1.45;;;11.20;99.90;;;;;;5059399;28;20036;-89
2023/07/04 01:35:27;;;;;;;7.32;1.80;;;11.20;99.90;;;;;;5062579;28;20577;-87
2023/07/04 01:37:54;;;;;;;7.55;1.65;;;11.20;99.90;;;;;;5069589;28;20578;-87
2023/07/04 01:40:20;;;;;;;6.20;1.40;;;11.20;99.90;;;;;;5060841;28;20036;-87
2023/07/04 01:42:46;;;;;;;5.20;1.75;;;11.20;99.90;;;;;;5066261;28;20027;-88
2023/07/04 01:45:12;;;;;;;3.90;1.20;;;11.20;99.90;;;;;;5062669;28;20101;-87
2023/07/04 01:47:38;;;;;;;4.45;1.50;;;11.20;99.90;;;;;;5069599;28;20572;-88
2023/07/04 01:50:06;;;;;;;6.75;1.50;;;11.10;99.90;;;;;;5063428;28;20337;-88
2023/07/04 01:52:32;;;;;;;4.60;1.40;;;11.10;99.90;;;;;;5062803;28;20024;-88
2023/07/04 01:54:58;;;;;;;5.10;1.73;;;11.10;99.90;;;;;;5066567;28;20045;-87
2023/07/04 01:57:24;;;;;;;4.45;1.52;;;11.20;99.90;;;;;;5068992;28;20025;-87
2023/07/04 01:59:50;;;;;;;6.45;1.45;;;11.20;99.90;;;;;;5059745;28;20075;-88
2023/07/04 02:02:16;;;;;;;5.95;1.60;;;11.20;99.90;;;;;;5062946;28;20669;-87
2023/07/04 02:04:41;;;;;;;6.50;1.45;;;11.20;99.90;;;;;;5067485;28;20123;-88
2023/07/04 02:07:07;;;;;;;6.05;1.52;;;11.20;99.90;;;;;;5066894;28;20052;-86
2023/07/04 02:09:33;;;;;;;5.47;1.50;;;11.20;99.90;;;;;;5068511;28;20314;-88
2023/07/04 02:11:58;;;;;;;6.03;1.45;;;11.10;99.90;;;;;;5067085;28;20119;-87
2023/07/04 02:14:24;;;;;;;6.68;1.60;;;11.20;99.90;;;;;;5066977;28;20095;-87
2023/07/04 02:16:51;;;;;;;6.30;1.48;;;11.20;99.90;;;;;;5062958;28;20056;-87
2023/07/04 02:19:17;;;;;;;6.50;1.85;;;11.20;99.90;;;;;;5065870;28;20052;-86
2023/07/04 02:21:43;;;;;;;5.70;1.58;;;11.30;99.90;;;;;;5066262;28;20428;-83
2023/07/04 02:24:08;;;;;;;6.43;1.60;;;11.30;99.90;;;;;;5067716;28;20050;-87
2023/07/04 02:26:34;;;;;;;3.67;1.15;;;11.30;99.90;;;;;;5079985;28;20024;-87
2023/07/04 02:29:00;;;;;;;6.10;1.40;;;11.30;99.90;;;;;;5064080;28;20032;-89
2023/07/04 02:31:26;;;;;;;8.07;1.40;;;11.30;99.90;;;;;;5084253;28;20161;-86
2023/07/04 02:33:52;;;;;;;9.13;1.60;;;11.30;99.90;;;;;;5068006;28;20111;-88
2023/07/04 02:36:18;;;;;;;4.38;1.45;;;11.30;99.90;;;;;;5068247;28;20082;-87
2023/07/04 02:38:44;;;;;;;7.90;1.63;;;11.30;99.90;;;;;;5066092;28;20029;-88
2023/07/04 02:41:10;;;;;;;8.48;2.17;;;11.30;99.90;;;;;;5069162;28;20138;-85
2023/07/04 02:43:36;;;;;;;5.80;1.75;;;11.40;99.90;;;;;;5067377;28;20155;-87
2023/07/04 02:46:04;;;;;;;7.43;1.70;;;11.40;99.90;;;;;;5068319;28;20029;-88
2023/07/04 02:48:31;;;;;;;5.78;1.52;;;11.40;99.90;;;;;;5062701;28;20487;-88
2023/07/04 02:50:57;;;;;;;7.53;1.98;;;11.30;99.90;;;;;;5065730;28;20039;-86
2023/07/04 02:53:23;;;;;;;7.40;2.05;;;11.30;99.90;;;;;;5067140;28;20033;-86
2023/07/04 02:55:50;;;;;;;9.90;1.98;;;11.20;99.90;;;;;;5066860;28;20415;-89
2023/07/04 02:58:15;;;;;;;10.30;2.10;;;11.20;99.90;;;;;;5055248;28;20025;-90
2023/07/04 03:00:42;;;;;;;6.97;1.60;;;11.30;99.90;;;;;;5069807;28;20120;-88
2023/07/04 03:03:08;;;;;;;9.50;2.22;;;11.30;99.90;;;;;;5068395;28;20773;-87
2023/07/04 03:05:37;;;;;;;10.15;2.20;;;11.30;99.90;;;;;;5068009;28;20036;-85
2023/07/04 03:08:04;;;;;;;11.02;2.10;;;11.30;99.90;;;;;;5066117;28;20028;-86
2023/07/04 03:10:30;;;;;;;9.35;1.92;;;11.50;99.90;;;;;;5083435;28;20024;-87
2023/07/04 03:12:56;;;;;;;14.00;2.55;;;11.60;99.90;;;;;;5064252;28;20028;-85
2023/07/04 03:15:22;;;;;;;12.05;2.45;;;11.70;99.90;;;;;;5064987;28;20094;-85
2023/07/04 03:17:48;;;;;;;8.65;1.85;;;11.90;99.90;;;;;;5066979;28;20099;-86
2023/07/04 03:20:14;;;;;;;8.90;2.22;;;12.00;99.90;;;;;;5066750;28;20052;-87
2023/07/04 03:22:41;;;;;;;14.55;2.22;;;12.10;99.90;;;;;;5058942;28;20059;-85
2023/07/04 03:25:07;;;;;;;9.20;1.67;;;12.20;99.90;;;;;;5064846;28;20040;-85
2023/07/04 03:27:35;;;;;;;10.65;2.00;;;12.30;99.90;;;;;;5061666;28;20032;-84
2023/07/04 03:30:01;;;;;;;11.07;2.22;;;12.40;99.90;;;;;;5062891;28;20035;-85
2023/07/04 03:32:27;;;;;;;9.05;2.03;;;12.50;99.90;;;;;;5061839;28;20017;-83
2023/07/04 03:34:52;;;;;;;7.53;2.20;;;12.60;99.90;;;;;;5060961;28;20036;-84
2023/07/04 03:37:18;;;;;;;16.75;2.33;;;12.60;99.90;;;;;;5067258;28;20494;-85
2023/07/04 03:39:43;;;;;;;13.77;2.30;;;12.70;99.90;;;;;;5067280;28;20054;-82
2023/07/04 03:42:09;;;;;;;9.65;2.33;;;12.70;99.90;;;;;;5065546;28;20289;-84
2023/07/04 03:44:35;;;;;;;12.38;2.40;;;12.80;99.90;;;;;;5063245;28;20027;-84
2023/07/04 03:47:00;;;;;;;10.13;2.20;;;12.80;99.90;;;;;;5064735;28;20159;-84
2023/07/04 03:49:26;;;;;;;6.88;1.90;;;12.90;99.90;;;;;;5064763;28;20067;-84
2023/07/04 03:51:52;;;;;;;12.30;2.42;;;12.90;99.90;;;;;;5062958;28;20029;-84
2023/07/04 03:54:17;;;;;;;8.15;1.85;;;13.00;99.90;;;;;;5054010;28;20593;-85
2023/07/04 03:56:43;;;;;;;6.07;1.80;;;13.00;99.90;;;;;;5060890;28;20032;-86
2023/07/04 03:59:09;;;;;;;12.18;1.98;;;13.00;99.90;;;;;;5063914;28;20028;-86
2023/07/04 04:01:34;;;;;;;7.57;2.10;;;13.00;99.90;;;;;;5061982;28;20036;-86
2023/07/04 04:04:00;;;;;;;11.45;1.98;;;13.00;99.90;;;;;;5057173;28;20059;-87
2023/07/04 04:06:25;;;;;;;6.90;1.80;;;12.90;99.90;;;;;;5065736;28;20559;-87
2023/07/04 04:08:51;;;;;;;9.80;2.10;;;13.00;99.90;;;;;;5061323;28;20032;-84
2023/07/04 04:11:16;;;;;;;11.68;2.30;;;13.00;99.90;;;;;;5063853;28;20025;-87
2023/07/04 04:13:42;;;;;;;9.27;2.00;;;13.00;99.90;;;;;;5065760;28;20024;-88
2023/07/04 04:16:08;;;;;;;9.65;1.88;;;13.00;99.90;;;;;;5063933;28;20037;-85
2023/07/04 04:18:33;;;;;;;8.57;1.83;;;13.10;99.90;;;;;;5063439;28;20064;-85
2023/07/04 04:20:59;;;;;;;4.95;1.70;;;13.10;99.90;;;;;;5064530;28;20050;-84
2023/07/04 04:23:24;;;;;;;13.30;2.15;;;13.20;99.90;;;;;;5066553;28;20457;-85
2023/07/04 04:25:50;;;;;;;11.73;2.50;;;13.20;99.90;;;;;;5066772;28;20024;-84
2023/07/04 04:28:16;;;;;;;6.10;1.90;;;13.20;99.90;;;;;;5068387;28;20481;-86
2023/07/04 04:30:42;;;;;;;7.13;1.98;;;13.30;99.90;;;;;;5067690;28;20027;-87
2023/07/04 04:33:09;;;;;;;9.50;2.00;;;13.30;99.90;;;;;;5070139;28;20024;-85
2023/07/04 04:35:37;;;;;;;10.02;1.60;;;13.40;99.90;;;;;;5070015;28;20074;-85
2023/07/04 04:38:03;;;;;;;11.05;2.00;;;13.40;99.90;;;;;;5066825;28;20040;-85
2023/07/04 04:40:29;;;;;;;7.82;1.65;;;13.40;99.90;;;;;;5069148;28;20034;-85
2023/07/04 04:42:56;;;;;;;11.70;2.15;;;13.50;99.90;;;;;;5059697;28;20021;-87
2023/07/04 04:45:23;;;;;;;12.68;2.13;;;13.50;99.90;;;;;;5064549;28;20032;-87
2023/07/04 04:47:52;;;;;;;8.52;2.33;;;13.60;99.90;;;;;;5068358;28;20028;-84
2023/07/04 04:50:30;;;;;;;8.90;2.10;;;13.60;99.90;;;;;;5070765;28;20035;-84
2023/07/04 04:52:56;;;;;;;7.40;1.58;;;13.70;99.90;;;;;;5069485;28;20020;-85
2023/07/04 04:55:22;;;;;;;8.95;1.60;;;13.70;99.90;;;;;;5068276;28;20130;-87
2023/07/04 04:57:47;;;;;;;10.73;1.90;;;13.80;99.90;;;;;;5068614;28;20048;-84
2023/07/04 05:00:13;;;;;;;7.47;1.95;;;13.90;99.90;;;;;;5068907;28;20029;-85
2023/07/04 05:02:39;;;;;;;6.10;1.63;;;14.00;99.90;;;;;;5067715;28;20877;-85
2023/07/04 05:05:05;;;;;;;10.95;1.90;;;14.10;99.90;;;;;;5065883;28;20035;-86
2023/07/04 05:07:30;;;;;;;5.72;1.92;;;14.20;99.90;;;;;;5067831;28;20463;-84
2023/07/04 05:10:00;;;;;;;6.80;1.65;;;14.30;99.90;;;;;;5065779;28;20033;-85
2023/07/04 05:12:26;;;;;;;6.03;1.73;;;14.40;99.90;;;;;;5063299;28;20028;-85
2023/07/04 05:14:52;;;;;;;9.75;2.00;;;14.50;99.90;;;;;;5065572;28;20048;-87
2023/07/04 05:17:17;;;;;;;8.95;1.73;;;14.50;99.90;;;;;;5069243;28;20024;-88
2023/07/04 05:19:43;;;;;;;10.23;2.00;;;14.60;99.90;;;;;;5070070;28;20029;-88
2023/07/04 05:22:09;;;;;;;9.82;1.63;;;14.70;99.90;;;;;;5068759;28;20052;-87
2023/07/04 05:24:34;;;;;;;7.60;2.15;;;14.70;99.90;;;;;;5066209;28;20079;-89
2023/07/04 05:27:00;;;;;;;8.38;1.70;;;14.80;99.90;;;;;;5068522;28;20368;-89
2023/07/04 05:29:25;;;;;;;9.63;2.22;;;14.90;99.90;;;;;;5062645;28;20033;-87
2023/07/04 05:31:51;;;;;;;9.18;1.55;;;15.00;99.90;;;;;;5064401;28;20127;-89
2023/07/04 05:34:17;;;;;;;11.25;2.20;;;15.10;99.90;;;;;;5069229;28;20041;-89
2023/07/04 05:36:42;;;;;;;8.77;1.88;;;15.20;99.90;;;;;;5057400;28;20116;-88
2023/07/04 05:39:08;;;;;;;8.93;1.83;;;15.20;99.90;;;;;;5067905;28;20165;-84
2023/07/04 05:41:35;;;;;;;6.85;2.03;;;15.40;99.90;;;;;;5067813;28;20032;-86
2023/07/04 05:44:03;;;;;;;8.93;1.67;;;15.40;99.90;;;;;;5066203;28;20037;-88
2023/07/04 05:46:29;;;;;;;8.27;1.80;;;15.50;99.90;;;;;;5056387;28;20029;-86
2023/07/04 05:48:56;;;;;;;8.00;1.75;;;15.60;99.90;;;;;;5068761;28;20468;-89
2023/07/04 05:51:21;;;;;;;8.95;1.95;;;15.60;99.90;;;;;;5068639;28;20511;-91
2023/07/04 05:53:50;;;;;;;9.60;2.03;;;15.80;99.90;;;;;;5069341;28;20028;-88
2023/07/04 05:56:27;;;;;;;9.70;1.73;;;15.90;99.90;;;;;;5069118;28;20046;-88
2023/07/04 05:58:58;;;;;;;11.48;1.75;;;16.10;99.90;;;;;;5054527;28;20617;-87
2023/07/04 06:01:28;;;;;;;9.45;1.92;;;16.30;99.90;;;;;;5067324;28;20475;-89
2023/07/04 06:03:55;;;;;;;9.77;1.60;;;16.40;99.90;;;;;;5066341;28;20024;-88
2023/07/04 06:06:21;;;;;;;494.48;320.23;;;16.50;99.90;;;;;;5067692;28;20060;-87
2023/07/04 06:08:49;;;;;;;127.03;68.97;;;16.60;99.90;;;;;;5065514;28;20039;-87
2023/07/04 06:11:15;;;;;;;10.38;1.80;;;16.80;99.90;;;;;;5078831;28;20032;-88
2023/07/04 06:13:44;;;;;;;9.82;2.33;;;16.90;99.90;;;;;;5068850;28;20086;-89
2023/07/04 06:16:09;;;;;;;9.73;2.70;;;17.10;99.90;;;;;;5067053;28;20074;-88
2023/07/04 06:18:35;;;;;;;8.10;2.40;;;17.30;99.90;;;;;;5058835;28;20267;-88
2023/07/04 06:21:22;;;;;;;6.30;1.70;;;17.40;99.90;;;;;;5063558;28;20194;-88
2023/07/04 06:23:49;;;;;;;7.07;1.88;;;17.60;99.90;;;;;;5062911;28;20104;-90
2023/07/04 06:26:15;;;;;;;23.77;13.88;;;17.70;99.90;;;;;;5065062;28;20024;-86
2023/07/04 06:28:42;;;;;;;8.00;2.55;;;17.70;99.90;;;;;;5061471;28;20059;-88
2023/07/04 06:31:11;;;;;;;9.88;2.03;;;17.80;99.90;;;;;;5082629;28;20127;-89
2023/07/04 06:33:37;;;;;;;10.30;2.00;;;17.80;99.90;;;;;;5061971;28;20032;-89
2023/07/04 06:36:06;;;;;;;7.22;1.88;;;18.00;99.90;;;;;;5070000;28;20883;-88
2023/07/04 06:38:32;;;;;;;9.13;2.33;;;18.20;99.90;;;;;;5058607;28;20464;-91
2023/07/04 06:41:02;;;;;;;11.85;2.53;;;18.30;99.90;;;;;;5061613;28;20033;-88
2023/07/04 06:43:31;;;;;;;10.88;2.88;;;18.40;99.90;;;;;;5064499;28;20076;-90
2023/07/04 06:45:57;;;;;;;9.32;2.28;;;18.60;99.90;;;;;;5063509;28;20037;-90
2023/07/04 06:48:24;;;;;;;5.28;1.67;;;18.70;99.90;;;;;;5064895;28;20041;-89
2023/07/04 06:51:12;;;;;;;6.65;1.98;;;18.70;99.90;;;;;;5064141;28;20377;-90
2023/07/04 06:53:38;;;;;;;5.35;1.63;;;18.80;99.90;;;;;;5068557;28;20060;-91
2023/07/04 06:56:12;;;;;;;8.32;1.60;;;18.60;99.90;;;;;;5063437;28;20092;-89
2023/07/04 06:58:40;;;;;;;7.57;1.90;;;18.60;99.90;;;;;;5049634;28;20040;-90
2023/07/04 07:01:07;;;;;;;7.10;1.83;;;18.90;99.90;;;;;;5049469;28;20041;-88
2023/07/04 07:03:33;;;;;;;6.90;1.92;;;19.20;99.90;;;;;;5049161;28;20159;-90
2023/07/04 07:06:08;;;;;;;5.85;1.63;;;19.30;99.90;;;;;;5070388;28;20515;-90
2023/07/04 07:08:34;;;;;;;8.80;1.83;;;19.40;99.90;;;;;;5066654;28;20106;-90
2023/07/04 07:11:05;;;;;;;6.28;1.90;;;19.50;99.90;;;;;;5067159;28;20032;-89
2023/07/04 07:13:30;;;;;;;7.63;2.05;;;19.50;99.90;;;;;;5065470;28;20050;-90
2023/07/04 07:16:11;;;;;;;6.03;1.85;;;19.70;99.90;;;;;;5069095;28;20514;-90
2023/07/04 07:18:38;;;;;;;5.95;1.60;;;19.70;99.90;;;;;;5053185;28;20021;-89
2023/07/04 07:21:05;;;;;;;8.45;1.75;;;19.60;99.90;;;;;;5063774;28;20060;-89
2023/07/04 07:23:32;;;;;;;10.25;1.98;;;19.70;99.90;;;;;;5067379;28;20063;-89
2023/07/04 07:26:00;;;;;;;8.27;1.83;;;19.90;99.90;;;;;;5067050;28;20081;-91
2023/07/04 07:28:27;;;;;;;6.45;1.65;;;20.00;99.90;;;;;;5066356;28;20055;-90
2023/07/04 07:31:11;;;;;;;5.63;1.40;;;20.20;99.90;;;;;;5067634;28;20154;-88
2023/07/04 07:33:39;;;;;;;4.55;1.35;;;20.60;99.90;;;;;;5066361;28;20041;-90
2023/07/04 07:36:12;;;;;;;7.45;1.70;;;21.00;99.90;;;;;;5070437;28;20050;-89
2023/07/04 07:38:38;;;;;;;5.35;1.70;;;21.60;99.90;;;;;;5068899;28;20028;-88
2023/07/04 07:41:05;;;;;;;5.80;1.67;;;21.70;99.90;;;;;;5065757;28;20163;-90
2023/07/04 07:43:31;;;;;;;5.18;1.73;;;22.30;99.90;;;;;;5066939;28;20021;-89
2023/07/04 07:45:57;;;;;;;4.93;1.60;;;23.40;99.30;;;;;;5069336;28;20029;-92
2023/07/04 07:48:22;;;;;;;7.55;1.55;;;24.10;94.50;;;;;;5065868;28;20078;-91
2023/07/04 07:50:48;;;;;;;6.00;1.30;;;24.10;90.90;;;;;;5063614;28;20028;-92
2023/07/04 07:53:14;;;;;;;4.95;1.75;;;23.80;92.10;;;;;;5065524;28;20035;-89
2023/07/04 07:55:40;;;;;;;8.55;1.80;;;23.30;92.10;;;;;;5065863;28;20040;-92
2023/07/04 07:58:06;;;;;;;4.97;1.40;;;22.50;95.20;;;;;;5060860;28;20029;-91
2023/07/04 08:00:31;;;;;;;6.45;1.73;;;22.00;99.90;;;;;;5056741;28;20032;-90
2023/07/04 08:02:57;;;;;;;7.30;1.65;;;21.60;99.90;;;;;;5060781;28;20032;-89
2023/07/04 08:05:22;;;;;;;5.50;1.65;;;21.10;99.90;;;;;;5061773;28;20094;-89
2023/07/04 08:07:48;;;;;;;8.75;1.83;;;20.80;99.90;;;;;;5060729;28;20057;-90
2023/07/04 08:10:14;;;;;;;9.55;1.83;;;20.50;99.90;;;;;;5078126;28;20036;-91
2023/07/04 08:12:39;;;;;;;5.45;1.65;;;20.40;99.90;;;;;;5069604;28;20425;-91
2023/07/04 08:15:05;;;;;;;6.97;1.75;;;20.30;99.90;;;;;;5073363;28;20052;-88
2023/07/04 08:17:31;;;;;;;6.43;1.85;;;20.10;99.90;;;;;;5072109;28;20082;-88
2023/07/04 08:19:56;;;;;;;9.30;1.80;;;19.70;99.90;;;;;;5069501;28;20041;-89
2023/07/04 08:22:22;;;;;;;6.07;1.95;;;19.60;99.90;;;;;;5074106;28;20040;-89
2023/07/04 08:24:48;;;;;;;7.30;1.98;;;19.70;99.90;;;;;;5071383;28;20575;-91
2023/07/04 08:27:14;;;;;;;7.40;2.08;;;20.10;99.90;;;;;;5074636;28;20021;-89
2023/07/04 08:29:40;;;;;;;6.80;1.83;;;20.80;99.90;;;;;;5066758;28;20024;-83
2023/07/04 08:32:06;;;;;;;4.93;1.63;;;21.60;99.90;;;;;;5064699;28;20040;-84
2023/07/04 08:34:32;;;;;;;7.20;2.10;;;22.40;99.90;;;;;;5055683;28;20048;-83
2023/07/04 08:36:58;;;;;;;7.47;2.03;;;23.30;99.00;;;;;;5049833;28;20029;-84
2023/07/04 08:39:24;;;;;;;6.75;1.95;;;24.30;97.20;;;;;;5058335;28;20032;-83
2023/07/04 08:41:59;;;;;;;7.40;2.13;;;25.20;92.20;;;;;;5069886;28;20025;-84
2023/07/04 08:44:34;;;;;;;9.00;2.50;;;25.90;87.30;;;;;;5068025;28;20128;-84
2023/07/04 08:46:59;;;;;;;7.57;1.98;;;26.30;83.10;;;;;;5065611;28;20028;-83
2023/07/04 08:49:42;;;;;;;6.60;1.90;;;27.40;79.40;;;;;;5049850;28;20036;-83
2023/07/04 08:52:23;;;;;;;8.30;2.28;;;27.30;76.50;;;;;;5061803;28;20028;-84
2023/07/04 08:54:50;;;;;;;9.55;1.98;;;27.60;75.90;;;;;;5069564;28;20090;-83
2023/07/04 08:57:37;;;;;;;7.97;2.10;;;27.80;74.10;;;;;;5069618;28;20028;-84
2023/07/04 09:00:20;;;;;;;8.23;2.40;;;27.30;68.00;;;;;;5060723;28;20154;-82
2023/07/04 09:03:09;;;;;;;9.00;2.35;;;26.40;76.00;;;;;;5068898;28;20032;-84
2023/07/04 09:05:52;;;;;;;9.05;2.42;;;25.60;79.30;;;;;;5087440;28;20479;-83
2023/07/04 09:08:33;;;;;;;8.65;2.47;;;24.90;83.10;;;;;;5088267;28;20028;-83
2023/07/04 09:11:02;;;;;;;9.60;2.85;;;24.50;84.10;;;;;;5072406;28;20032;-83
2023/07/04 09:13:34;;;;;;;7.90;2.92;;;23.80;90.30;;;;;;5048946;28;20112;-82
2023/07/04 09:16:05;;;;;;;9.32;2.47;;;23.60;96.80;;;;;;5053496;28;20072;-84
2023/07/04 09:18:56;;;;;;;8.63;2.53;;;23.90;96.40;;;;;;5049883;28;20029;-84
2023/07/04 09:21:23;;;;;;;9.50;2.57;;;23.90;96.70;;;;;;5058837;28;20053;-85
2023/07/04 09:23:51;;;;;;;7.78;2.58;;;24.20;92.60;;;;;;5068597;28;20111;-82
2023/07/04 09:26:25;;;;;;;8.55;2.70;;;24.70;93.80;;;;;;5068256;28;20032;-84
2023/07/04 09:28:52;;;;;;;10.57;3.08;;;24.70;92.90;;;;;;5069542;28;20051;-84
2023/07/04 09:31:24;;;;;;;11.55;2.72;;;24.60;90.40;;;;;;5070033;28;20659;-84
2023/07/04 09:33:52;;;;;;;10.65;3.03;;;24.40;92.60;;;;;;5067206;28;20492;-83
2023/07/04 09:36:21;;;;;;;7.93;2.35;;;23.70;93.10;;;;;;5049944;28;20037;-85
2023/07/04 09:38:55;;;;;;;10.15;2.50;;;23.50;95.90;;;;;;5074158;28;20068;-82
2023/07/04 09:41:26;;;;;;;11.35;2.88;;;22.90;98.20;;;;;;5072545;28;20036;-83
2023/07/04 09:43:56;;;;;;;18.48;2.90;;;22.60;99.60;;;;;;5068789;28;20032;-84
2023/07/04 09:46:30;;;;;;;11.00;2.88;;;22.80;99.90;;;;;;5068673;28;20032;-85
2023/07/04 09:49:19;;;;;;;11.15;2.80;;;22.90;99.60;;;;;;5069489;28;20043;-86
2023/07/04 09:52:01;;;;;;;11.00;2.72;;;23.10;98.90;;;;;;5069562;28;20031;-84
2023/07/04 09:54:27;;;;;;;11.10;3.13;;;23.70;98.10;;;;;;5059999;28;20074;-84
2023/07/04 09:56:53;;;;;;;11.40;2.83;;;23.70;97.30;;;;;;5052839;28;20028;-86
2023/07/04 09:59:26;;;;;;;11.75;2.95;;;23.50;96.70;;;;;;5054462;28;20503;-85
2023/07/04 10:01:57;;;;;;;8.90;2.70;;;22.70;99.20;;;;;;5048248;28;20025;-85
2023/07/04 10:04:33;;;;;;;10.60;3.10;;;22.80;99.90;;;;;;5061183;28;20634;-84
2023/07/04 10:06:59;;;;;;;14.05;3.00;;;22.40;99.90;;;;;;5070677;28;20040;-83
2023/07/04 10:09:26;;;;;;;16.83;3.25;;;22.30;99.90;;;;;;5068881;28;20036;-84
2023/07/04 10:12:10;;;;;;;15.68;2.90;;;21.40;99.90;;;;;;5068531;28;20032;-84
2023/07/04 10:14:43;;;;;;;16.13;3.47;;;21.70;99.90;;;;;;5048787;28;20033;-85
2023/07/04 10:17:29;;;;;;;13.98;3.33;;;21.50;99.90;;;;;;5053856;28;20784;-81
2023/07/04 10:19:57;;;;;;;10.70;2.50;;;21.30;99.90;;;;;;5061674;28;20028;-84
2023/07/04 10:22:33;;;;;;;18.00;3.58;;;21.70;99.90;;;;;;5054709;22;20045;-86
2023/07/04 10:25:00;;;;;;;8.48;2.42;;;22.40;99.90;;;;;;5041376;28;20052;-83
2023/07/04 10:27:34;;;;;;;13.40;2.90;;;22.70;99.90;;;;;;5040118;28;20028;-83
2023/07/04 10:30:02;;;;;;;11.57;2.78;;;23.80;99.90;;;;;;5046619;28;20309;-87
2023/07/04 10:32:28;;;;;;;12.10;3.00;;;24.50;95.40;;;;;;5033652;28;20120;-85
2023/07/04 10:34:55;;;;;;;13.38;2.65;;;25.30;90.30;;;;;;5039465;28;20095;-85
2023/07/04 10:37:29;;;;;;;7.10;2.50;;;27.20;84.40;;;;;;5042140;28;20112;-83
2023/07/04 10:39:58;;;;;;;7.85;2.40;;;27.60;73.70;;;;;;5046427;28;20040;-87
2023/07/04 10:42:45;;;;;;;10.20;2.40;;;29.70;65.80;;;;;;5044014;28;20037;-85
2023/07/04 10:45:15;;;;;;;7.30;2.40;;;31.10;62.60;;;;;;5028822;28;20500;-83
2023/07/04 10:47:41;;;;;;;11.30;2.83;;;31.70;62.90;;;;;;5052227;28;20037;-81
2023/07/04 10:50:29;;;;;;;7.70;2.60;;;32.50;52.80;;;;;;5039678;28;20029;-82
2023/07/04 10:52:55;;;;;;;7.70;2.70;;;29.80;55.90;;;;;;5056162;28;20122;-84
2023/07/04 10:55:31;;;;;;;8.35;2.60;;;30.00;59.10;;;;;;5027350;28;20508;-82
2023/07/04 10:58:04;;;;;;;8.57;2.30;;;30.40;55.60;;;;;;5038212;28;20563;-82
2023/07/04 11:01:10;;;;;;;9.13;2.83;;;29.20;58.90;;;;;;5057822;28;20515;-83
2023/07/04 11:04:18;;;;;;;10.77;2.92;;;28.30;59.40;;;;;;5012995;28;20037;-83
2023/07/04 11:06:53;;;;;;;10.75;2.75;;;29.00;59.90;;;;;;5044767;28;20041;-82
2023/07/04 11:09:19;;;;;;;12.00;2.58;;;29.20;65.10;;;;;;5039341;28;20116;-81
2023/07/04 11:11:47;;;;;;;9.75;2.63;;;29.30;59.90;;;;;;5046760;28;20179;-81
2023/07/04 11:14:19;;;;;;;9.80;2.50;;;29.40;60.40;;;;;;5030796;28;20428;-82
2023/07/04 11:16:45;;;;;;;8.50;2.65;;;29.30;59.00;;;;;;5046355;28;20035;-81
2023/07/04 11:19:21;;;;;;;11.23;3.05;;;28.80;60.20;;;;;;5065529;28;20404;-82
2023/07/04 11:22:00;;;;;;;8.18;2.58;;;28.20;65.10;;;;;;5049826;28;20044;-82
2023/07/04 11:24:33;;;;;;;10.00;3.08;;;28.30;68.00;;;;;;4698789;28;10000550;-83
2023/07/04 11:27:01;;;;;;;10.75;3.00;;;28.60;63.10;;;;;;5050612;28;20025;-82
2023/07/04 11:29:54;;;;;;;10.10;2.78;;;27.50;68.60;;;;;;5049935;28;20388;-85
2023/07/04 11:32:38;;;;;;;11.63;2.88;;;26.70;68.70;;;;;;5049390;28;20040;-82
2023/07/04 11:35:09;;;;;;;10.13;3.00;;;25.60;78.80;;;;;;5041726;28;20500;-84
2023/07/04 11:37:45;;;;;;;12.50;3.38;;;25.70;77.20;;;;;;5043090;28;20104;-81
2023/07/04 11:40:40;;;;;;;13.93;3.10;;;25.20;82.40;;;;;;5044767;28;20037;-85
2023/07/04 11:43:21;;;;;;;11.35;3.33;;;25.30;85.70;;;;;;5040261;28;20064;-81
2023/07/04 11:45:48;;;;;;;14.73;4.22;;;25.00;91.30;;;;;;5037118;28;20078;-83
2023/07/04 11:48:17;;;;;;;12.68;3.35;;;24.60;91.30;;;;;;5037826;28;20025;-81
2023/07/04 11:50:48;;;;;;;11.98;3.30;;;25.00;92.10;;;;;;5040647;28;20103;-83
2023/07/04 11:53:17;;;;;;;11.65;3.05;;;24.50;94.10;;;;;;5040406;28;20067;-84
2023/07/04 11:55:44;;;;;;;10.82;2.70;;;24.10;94.50;;;;;;5038245;28;20114;-83
2023/07/04 11:58:09;;;;;;;13.40;3.05;;;23.00;96.90;;;;;;5042705;28;20029;-82
2023/07/04 12:00:38;;;;;;;12.73;3.03;;;23.00;99.90;;;;;;5044835;28;20400;-80
2023/07/04 12:03:21;;;;;;;13.10;3.03;;;22.90;98.10;;;;;;5040778;28;20029;-83
2023/07/04 12:06:06;;;;;;;12.98;2.83;;;23.00;97.00;;;;;;5041707;28;20555;-82
2023/07/04 12:08:42;;;;;;;14.88;3.30;;;22.70;99.40;;;;;;5036832;28;20025;-81
2023/07/04 12:11:15;;;;;;;12.20;3.13;;;22.70;99.90;;;;;;5040648;28;20048;-81
2023/07/04 12:13:42;;;;;;;12.18;3.28;;;22.70;99.30;;;;;;5045478;28;20028;-82
2023/07/04 12:16:08;;;;;;;12.95;3.13;;;22.50;99.90;;;;;;5044572;28;20496;-82
2023/07/04 12:18:37;;;;;;;14.23;3.72;;;22.10;99.90;;;;;;5040113;28;20064;-81
2023/07/04 12:21:03;;;;;;;16.55;3.20;;;22.80;99.90;;;;;;5037620;28;20051;-82
2023/07/04 12:23:29;;;;;;;12.25;3.40;;;22.90;99.90;;;;;;5039887;28;20032;-80
2023/07/04 12:25:59;;;;;;;11.20;2.83;;;22.70;98.30;;;;;;5039328;28;20045;-81
2023/07/04 12:28:27;;;;;;;14.27;3.50;;;22.20;99.30;;;;;;5039148;28;20559;-83
2023/07/04 12:30:59;;;;;;;10.55;3.38;;;21.90;99.90;;;;;;5044727;28;20031;-83
2023/07/04 12:33:44;;;;;;;16.50;3.22;;;21.50;99.90;;;;;;5043294;28;20037;-81
2023/07/04 12:36:15;;;;;;;12.25;2.60;;;21.20;99.90;;;;;;5039256;28;20045;-83
2023/07/04 12:38:42;;;;;;;11.80;2.85;;;21.00;99.90;;;;;;5039806;28;20032;-83
2023/07/04 12:41:08;;;;;;;10.95;2.65;;;20.70;99.90;;;;;;5042132;28;20614;-78
2023/07/04 12:43:33;;;;;;;13.57;2.90;;;20.50;99.90;;;;;;5047928;28;20090;-82
2023/07/04 12:46:14;;;;;;;14.85;3.13;;;20.80;99.90;;;;;;5042223;28;20057;-80
2023/07/04 12:48:41;;;;;;;12.20;3.08;;;20.90;99.90;;;;;;5043718;28;20183;-83
2023/07/04 12:51:13;;;;;;;11.38;2.75;;;21.30;99.90;;;;;;5044545;28;20089;-81
2023/07/04 12:53:40;;;;;;;13.48;2.55;;;21.70;99.90;;;;;;5035966;28;20052;-82